Time;durP1;ratioP1;P1;durP2;ratioP2;P2;SDS_P1;SDS_P2;PMS_P1;PMS_P2;Temp;Humidity;BMP_temperature;BMP_pressure;BME280_temperature;BME280_humidity;BME280_pressure;Samples;Min_cycle;Max_cycle;Signal;HPM_P1;HPM_P2
2021/12/28 00:01:16;;;;;;;30.60;12.60;;;-2.10;70.80;;;;;;5034727;28;20029;-45
2021/12/28 00:03:44;;;;;;;21.95;11.70;;;-2.10;70.70;;;;;;5034901;28;20118;-44
2021/12/28 00:06:10;;;;;;;24.85;12.98;;;-2.10;70.70;;;;;;5034898;28;20079;-45
2021/12/28 00:08:36;;;;;;;25.85;11.77;;;-2.10;70.60;;;;;;5034634;28;20029;-45
2021/12/28 00:11:03;;;;;;;26.67;13.00;;;-2.20;70.40;;;;;;5034714;28;20075;-43
2021/12/28 00:13:30;;;;;;;24.85;10.75;;;-2.20;70.60;;;;;;5034799;28;20026;-46
2021/12/28 00:18:24;;;;;;;22.33;11.75;;;-2.30;70.60;;;;;;5034790;28;20026;-44
2021/12/28 00:20:56;;;;;;;23.17;11.10;;;-2.20;70.70;;;;;;5034367;28;20029;-44
2021/12/28 00:23:33;;;;;;;26.08;11.77;;;-2.30;70.70;;;;;;5034876;28;20164;-42
2021/12/28 00:25:59;;;;;;;22.77;10.10;;;-2.30;70.80;;;;;;5035957;28;20106;-45
2021/12/28 00:28:25;;;;;;;24.60;11.80;;;-2.30;70.60;;;;;;5038094;28;20029;-42
2021/12/28 00:30:52;;;;;;;26.13;12.35;;;-2.30;70.70;;;;;;5037903;28;20140;-44
2021/12/28 00:33:21;;;;;;;24.67;11.43;;;-2.30;70.80;;;;;;5037824;28;20032;-42
2021/12/28 00:35:46;;;;;;;25.35;11.95;;;-2.20;70.80;;;;;;5037666;28;20091;-45
2021/12/28 00:38:18;;;;;;;24.88;12.82;;;-2.20;70.70;;;;;;5037951;28;20030;-44
2021/12/28 00:40:43;;;;;;;22.55;11.70;;;-2.20;70.70;;;;;;5037461;28;20026;-43
2021/12/28 00:43:09;;;;;;;21.05;10.40;;;-2.20;70.70;;;;;;5037789;28;20036;-46
2021/12/28 00:45:35;;;;;;;23.33;12.07;;;-2.20;71.20;;;;;;5037467;28;20030;-43
2021/12/28 00:48:00;;;;;;;21.58;11.25;;;-2.20;70.70;;;;;;5037261;28;20045;-45
2021/12/28 00:50:27;;;;;;;26.85;11.20;;;-2.10;70.70;;;;;;5037401;28;20036;-45
2021/12/28 00:52:55;;;;;;;24.10;11.35;;;-2.10;70.30;;;;;;5037829;28;20026;-46
2021/12/28 00:55:21;;;;;;;23.92;11.45;;;-2.10;70.30;;;;;;4996888;28;1176350;-43
2021/12/28 00:57:48;;;;;;;24.35;11.93;;;-2.10;70.30;;;;;;5039060;28;20126;-44
2021/12/28 01:00:18;;;;;;;22.60;10.82;;;-2.10;70.10;;;;;;5038891;28;20029;-47
2021/12/28 01:02:44;;;;;;;23.38;12.35;;;-2.10;70.20;;;;;;5038908;28;20029;-43
2021/12/28 01:05:10;;;;;;;22.30;10.93;;;-2.10;70.00;;;;;;5038772;28;20291;-44
2021/12/28 01:07:36;;;;;;;27.48;12.02;;;-2.10;69.80;;;;;;5038533;28;20040;-45
2021/12/28 01:10:06;;;;;;;20.27;10.98;;;-2.10;69.90;;;;;;5038605;28;20034;-48
2021/12/28 01:12:31;;;;;;;25.80;11.90;;;-2.10;70.00;;;;;;5038835;28;20417;-43
2021/12/28 01:14:57;;;;;;;24.77;12.60;;;-2.10;70.00;;;;;;5038527;28;20083;-45
2021/12/28 01:17:23;;;;;;;21.20;10.65;;;-2.10;70.00;;;;;;5038248;28;20112;-44
2021/12/28 01:19:49;;;;;;;22.45;10.93;;;-2.10;69.90;;;;;;5038479;28;20040;-42
2021/12/28 01:22:15;;;;;;;25.08;10.85;;;-2.10;69.70;;;;;;5038229;28;20029;-42
2021/12/28 01:24:40;;;;;;;18.88;11.10;;;-2.10;69.50;;;;;;5038218;28;20078;-44
2021/12/28 01:27:06;;;;;;;21.95;10.05;;;-2.10;69.50;;;;;;5038457;28;20045;-46
2021/12/28 01:29:33;;;;;;;22.35;10.95;;;-2.10;69.70;;;;;;5038026;28;20029;-46
2021/12/28 01:31:59;;;;;;;22.38;10.32;;;-2.20;69.70;;;;;;5038283;28;20323;-44
2021/12/28 01:34:25;;;;;;;24.92;10.88;;;-2.10;69.80;;;;;;5038132;28;20101;-43
2021/12/28 01:36:51;;;;;;;17.65;9.82;;;-2.10;69.80;;;;;;5037729;28;20492;-43
2021/12/28 01:39:17;;;;;;;20.02;9.70;;;-2.10;69.60;;;;;;5038001;28;20342;-45
2021/12/28 01:41:43;;;;;;;26.27;10.63;;;-2.10;69.70;;;;;;5038214;28;20052;-42
2021/12/28 01:44:11;;;;;;;19.33;10.20;;;-2.20;69.60;;;;;;5037850;28;20445;-46
2021/12/28 01:46:38;;;;;;;19.70;9.77;;;-2.10;69.60;;;;;;5038116;28;20033;-42
2021/12/28 01:49:06;;;;;;;17.25;9.77;;;-2.20;69.70;;;;;;5037705;28;20079;-46
2021/12/28 01:51:32;;;;;;;18.35;8.52;;;-2.20;69.70;;;;;;5037536;28;20034;-44
2021/12/28 01:54:00;;;;;;;19.67;10.80;;;-2.20;69.80;;;;;;5037567;28;20132;-46
2021/12/28 01:56:38;;;;;;;21.13;9.70;;;-2.10;69.80;;;;;;5037582;28;20080;-45
2021/12/28 01:59:06;;;;;;;19.20;9.40;;;-2.20;69.60;;;;;;5037265;28;20043;-43
2021/12/28 02:01:32;;;;;;;17.98;9.77;;;-2.20;70.20;;;;;;5037873;28;20434;-43
2021/12/28 02:03:58;;;;;;;23.08;11.60;;;-2.20;69.50;;;;;;5037472;28;20061;-46
2021/12/28 02:06:25;;;;;;;17.55;9.55;;;-2.20;69.50;;;;;;5037230;28;20088;-42
2021/12/28 02:08:53;;;;;;;18.42;10.13;;;-2.20;69.50;;;;;;5037137;28;20033;-43
2021/12/28 02:11:19;;;;;;;19.58;9.55;;;-2.20;69.70;;;;;;5037381;28;20108;-45
2021/12/28 02:13:45;;;;;;;19.23;9.95;;;-2.20;69.70;;;;;;5037156;28;20030;-43
2021/12/28 02:16:11;;;;;;;21.95;11.43;;;-2.20;69.50;;;;;;5037188;28;20034;-44
2021/12/28 02:18:37;;;;;;;20.90;9.45;;;-2.20;69.50;;;;;;5037288;28;20033;-43
2021/12/28 02:21:05;;;;;;;24.13;11.57;;;-2.20;69.50;;;;;;5036956;28;20029;-44
2021/12/28 02:23:32;;;;;;;24.17;11.02;;;-2.20;69.60;;;;;;5037194;28;20116;-43
2021/12/28 02:25:57;;;;;;;18.48;9.80;;;-2.20;69.60;;;;;;5036638;28;20033;-47
2021/12/28 02:28:23;;;;;;;21.05;10.43;;;-2.10;69.60;;;;;;5036776;28;20160;-45
2021/12/28 02:30:52;;;;;;;19.17;9.98;;;-2.20;69.20;;;;;;5036725;28;20094;-45
2021/12/28 02:33:20;;;;;;;22.85;10.10;;;-2.20;69.20;;;;;;5037279;28;20034;-45
2021/12/28 02:35:46;;;;;;;21.30;9.82;;;-2.20;69.30;;;;;;5036698;28;20037;-44
2021/12/28 02:38:13;;;;;;;19.20;9.98;;;-2.20;69.30;;;;;;5036891;28;20033;-44
2021/12/28 02:40:41;;;;;;;21.58;10.43;;;-2.30;69.50;;;;;;5036515;28;20025;-45
2021/12/28 02:43:08;;;;;;;24.65;10.77;;;-2.20;69.50;;;;;;5036904;28;20041;-49
2021/12/28 02:45:38;;;;;;;21.88;10.68;;;-2.30;69.50;;;;;;5036468;28;20057;-43
2021/12/28 02:48:05;;;;;;;20.77;10.13;;;-2.20;69.50;;;;;;5036205;28;20025;-44
2021/12/28 02:50:45;;;;;;;20.02;10.45;;;-2.30;69.40;;;;;;5036643;28;20040;-42
2021/12/28 02:53:12;;;;;;;27.90;12.05;;;-2.30;69.50;;;;;;5036538;28;20025;-43
2021/12/28 02:55:39;;;;;;;22.05;9.85;;;-2.20;69.50;;;;;;5036067;28;20136;-44
2021/12/28 02:58:12;;;;;;;22.00;10.90;;;-2.20;69.40;;;;;;5036407;28;20045;-49
2021/12/28 03:00:48;;;;;;;16.27;9.65;;;-2.20;69.30;;;;;;5036459;28;20112;-43
2021/12/28 03:03:20;;;;;;;19.55;9.88;;;-2.20;69.20;;;;;;5036375;28;20025;-43
2021/12/28 03:05:47;;;;;;;21.13;10.20;;;-2.20;69.10;;;;;;5036059;28;20025;-44
2021/12/28 03:08:15;;;;;;;21.38;10.07;;;-2.20;69.10;;;;;;5036394;28;20025;-44
2021/12/28 03:10:42;;;;;;;20.48;9.95;;;-2.20;69.10;;;;;;5036293;28;20334;-43
2021/12/28 03:13:17;;;;;;;22.13;11.13;;;-2.20;69.10;;;;;;5036128;28;20021;-42
2021/12/28 03:15:43;;;;;;;22.92;11.05;;;-2.20;69.10;;;;;;5035953;28;20028;-42
2021/12/28 03:18:09;;;;;;;28.42;11.30;;;-2.20;69.10;;;;;;5036362;28;20038;-46
2021/12/28 03:20:34;;;;;;;20.92;10.63;;;-2.20;69.00;;;;;;5035989;28;20410;-42
2021/12/28 03:23:00;;;;;;;23.58;11.68;;;-2.20;69.00;;;;;;5036345;28;20029;-46
2021/12/28 03:25:26;;;;;;;24.42;12.18;;;-2.20;69.10;;;;;;5035714;28;20057;-42
2021/12/28 03:27:52;;;;;;;21.00;11.20;;;-2.10;69.10;;;;;;5035904;28;20026;-44
2021/12/28 03:30:18;;;;;;;24.33;11.75;;;-2.10;69.20;;;;;;5036085;28;20030;-43
2021/12/28 03:32:46;;;;;;;23.02;10.80;;;-2.10;69.00;;;;;;5036144;28;20029;-46
2021/12/28 03:35:13;;;;;;;22.40;11.35;;;-2.10;68.90;;;;;;5036218;28;20279;-43
2021/12/28 03:37:40;;;;;;;26.10;11.05;;;-2.10;68.80;;;;;;5036247;28;20499;-43
2021/12/28 03:40:10;;;;;;;20.15;11.13;;;-2.10;68.70;;;;;;5036039;28;20121;-43
2021/12/28 03:42:36;;;;;;;22.98;11.10;;;-2.10;68.80;;;;;;5035861;28;20033;-42
2021/12/28 03:45:02;;;;;;;22.02;11.50;;;-2.10;68.90;;;;;;5035452;28;20104;-44
2021/12/28 03:47:28;;;;;;;22.20;10.70;;;-2.10;68.90;;;;;;5035844;28;20037;-45
2021/12/28 03:49:54;;;;;;;23.33;11.27;;;-2.00;68.90;;;;;;5035873;28;20109;-44
2021/12/28 03:52:19;;;;;;;24.08;11.45;;;-2.00;68.70;;;;;;5035927;28;20064;-44
2021/12/28 03:54:45;;;;;;;26.48;10.77;;;-2.00;68.50;;;;;;5035551;28;20025;-44
2021/12/28 03:57:11;;;;;;;28.73;11.00;;;-2.00;68.30;;;;;;5036215;28;20076;-44
2021/12/28 03:59:38;;;;;;;26.60;12.27;;;-2.10;68.30;;;;;;5036893;28;20029;-42
2021/12/28 04:02:04;;;;;;;28.35;12.77;;;-2.10;68.50;;;;;;5040036;28;20056;-44
2021/12/28 04:04:30;;;;;;;24.45;10.82;;;-2.10;68.60;;;;;;5039798;28;20033;-43
2021/12/28 04:06:56;;;;;;;25.27;11.50;;;-2.00;68.70;;;;;;5039807;28;20073;-47
2021/12/28 04:09:45;;;;;;;19.45;10.27;;;-2.00;68.60;;;;;;5039466;28;20069;-45
2021/12/28 04:12:08;;;;;;;19.67;11.15;;;-2.00;68.40;;;;;;5039545;28;20029;-44
2021/12/28 04:14:33;;;;;;;20.55;9.68;;;-2.00;68.10;;;;;;5039619;28;20417;-42
2021/12/28 04:16:59;;;;;;;20.90;10.80;;;-2.00;67.90;;;;;;5039537;28;20342;-45
2021/12/28 04:19:24;;;;;;;22.23;11.63;;;-2.00;68.50;;;;;;5039424;28;20029;-43
2021/12/28 04:21:50;;;;;;;20.15;10.63;;;-2.10;68.00;;;;;;5039632;28;20037;-43
2021/12/28 04:24:16;;;;;;;32.88;11.75;;;-2.10;67.80;;;;;;5039358;28;20030;-42
2021/12/28 04:26:41;;;;;;;26.00;12.05;;;-2.00;68.00;;;;;;5039588;28;20029;-43
2021/12/28 04:29:07;;;;;;;21.63;11.55;;;-2.10;68.00;;;;;;5038949;28;20123;-45
2021/12/28 04:31:34;;;;;;;23.48;11.02;;;-2.10;68.00;;;;;;5039237;28;20100;-44
2021/12/28 04:34:00;;;;;;;21.27;11.40;;;-2.10;68.30;;;;;;5039137;28;20040;-42
2021/12/28 04:36:25;;;;;;;24.83;11.75;;;-2.10;68.00;;;;;;5039311;28;20033;-44
2021/12/28 04:38:51;;;;;;;32.47;15.07;;;-2.00;68.00;;;;;;5039178;28;20044;-46
2021/12/28 04:41:17;;;;;;;39.00;17.35;;;-2.00;68.10;;;;;;5039068;28;20041;-44
2021/12/28 04:43:43;;;;;;;35.00;17.13;;;-2.00;68.00;;;;;;5039050;28;20065;-43
2021/12/28 04:46:09;;;;;;;35.67;16.42;;;-2.00;67.90;;;;;;5038999;28;20038;-43
2021/12/28 04:48:35;;;;;;;37.13;17.63;;;-2.00;67.90;;;;;;5039030;28;20321;-44
2021/12/28 04:51:01;;;;;;;36.45;18.75;;;-2.00;67.90;;;;;;5038744;28;20065;-43
2021/12/28 04:53:27;;;;;;;37.88;17.52;;;-2.00;67.90;;;;;;5038898;28;20021;-45
2021/12/28 04:55:52;;;;;;;45.03;21.20;;;-1.90;67.90;;;;;;5038355;28;20056;-43
2021/12/28 04:58:19;;;;;;;34.42;17.73;;;-1.90;67.90;;;;;;5038997;28;20108;-44
2021/12/28 05:00:47;;;;;;;34.45;15.40;;;-1.90;67.70;;;;;;5038667;28;20334;-42
2021/12/28 05:03:14;;;;;;;28.52;16.02;;;-1.90;67.60;;;;;;5038620;28;20034;-46
2021/12/28 05:05:44;;;;;;;31.90;16.77;;;-1.90;67.60;;;;;;5038274;28;20044;-43
2021/12/28 05:08:13;;;;;;;30.67;16.33;;;-1.90;67.50;;;;;;5038680;28;20033;-45
2021/12/28 05:10:41;;;;;;;30.23;13.68;;;-1.90;67.50;;;;;;5037862;28;20030;-45
2021/12/28 05:13:07;;;;;;;29.02;14.77;;;-1.90;67.50;;;;;;5038473;28;20018;-44
2021/12/28 05:15:33;;;;;;;26.92;13.32;;;-1.90;67.40;;;;;;5038163;28;20079;-43
2021/12/28 05:17:59;;;;;;;38.20;13.70;;;-1.90;67.40;;;;;;5038620;28;20021;-45
2021/12/28 05:20:25;;;;;;;31.30;13.85;;;-1.90;67.40;;;;;;5038091;28;20148;-43
2021/12/28 05:22:51;;;;;;;27.23;13.90;;;-1.90;67.40;;;;;;5038207;28;20077;-42
2021/12/28 05:25:16;;;;;;;31.98;15.82;;;-1.90;67.30;;;;;;5037861;28;20026;-43
2021/12/28 05:27:42;;;;;;;26.40;13.93;;;-1.90;67.30;;;;;;5037922;28;20090;-45
2021/12/28 05:30:10;;;;;;;30.13;14.98;;;-1.90;67.20;;;;;;5038091;28;20040;-45
2021/12/28 05:32:35;;;;;;;30.73;16.33;;;-1.90;67.30;;;;;;5040399;28;20108;-49
2021/12/28 05:35:03;;;;;;;31.15;14.40;;;-1.90;67.30;;;;;;5037921;28;20113;-42
2021/12/28 05:37:28;;;;;;;30.38;13.88;;;-1.90;67.30;;;;;;5037836;28;20034;-43
2021/12/28 05:39:54;;;;;;;35.38;14.55;;;-1.90;66.90;;;;;;5037754;28;20402;-47
2021/12/28 05:42:20;;;;;;;28.65;14.93;;;-1.90;67.00;;;;;;5037903;28;20079;-47
2021/12/28 05:44:45;;;;;;;25.95;14.27;;;-1.90;66.90;;;;;;5053350;28;20405;-43
2021/12/28 05:47:11;;;;;;;28.00;13.73;;;-1.90;66.90;;;;;;5042037;28;20042;-46
2021/12/28 05:49:37;;;;;;;23.85;13.15;;;-1.90;66.90;;;;;;5036132;28;20052;-44
2021/12/28 05:52:03;;;;;;;32.08;14.15;;;-1.90;66.90;;;;;;5037758;28;20088;-46
2021/12/28 05:54:29;;;;;;;26.48;14.43;;;-1.80;66.80;;;;;;5037414;28;20025;-43
2021/12/28 05:56:55;;;;;;;26.75;14.00;;;-1.80;66.80;;;;;;5037470;28;20384;-42
2021/12/28 05:59:21;;;;;;;31.75;17.25;;;-1.80;66.60;;;;;;5036009;28;20029;-42
2021/12/28 06:01:46;;;;;;;45.92;20.30;;;-1.80;66.50;;;;;;5037349;28;20108;-44
2021/12/28 06:04:12;;;;;;;73.50;30.92;;;-1.80;66.50;;;;;;5037083;28;20088;-43
2021/12/28 06:06:37;;;;;;;78.32;33.70;;;-1.90;66.40;;;;;;5037385;28;20065;-45
2021/12/28 06:09:03;;;;;;;93.05;40.78;;;-1.80;67.00;;;;;;5036725;28;20402;-45
2021/12/28 06:11:29;;;;;;;69.32;29.65;;;-1.80;66.40;;;;;;5036994;28;20021;-43
2021/12/28 06:13:55;;;;;;;25.80;13.98;;;-1.80;66.30;;;;;;5037206;28;20112;-45
2021/12/28 06:16:21;;;;;;;24.00;13.02;;;-1.80;66.20;;;;;;5036818;28;20152;-44
2021/12/28 06:18:46;;;;;;;22.98;12.00;;;-1.80;65.90;;;;;;5039272;28;20413;-44
2021/12/28 06:21:12;;;;;;;29.80;13.10;;;-1.80;65.80;;;;;;5045747;28;20113;-45
2021/12/28 06:23:38;;;;;;;25.90;12.90;;;-1.80;66.00;;;;;;5036060;28;20025;-45
2021/12/28 06:26:03;;;;;;;23.10;12.68;;;-1.80;66.00;;;;;;5036800;28;20108;-43
2021/12/28 06:28:29;;;;;;;33.58;13.55;;;-1.80;65.90;;;;;;5036941;28;20083;-43
2021/12/28 06:30:56;;;;;;;29.20;13.23;;;-1.80;65.80;;;;;;5036564;28;20109;-43
2021/12/28 06:33:22;;;;;;;26.08;13.82;;;-1.80;65.90;;;;;;5036689;28;20091;-42
2021/12/28 06:35:52;;;;;;;26.02;11.85;;;-1.80;65.90;;;;;;5036293;28;20030;-43
2021/12/28 06:38:18;;;;;;;23.98;13.50;;;-1.80;65.80;;;;;;5036336;28;20026;-42
2021/12/28 06:40:44;;;;;;;25.88;14.20;;;-1.70;65.80;;;;;;5036397;28;20310;-42
2021/12/28 06:43:10;;;;;;;25.55;12.40;;;-1.70;65.80;;;;;;5036706;28;20026;-43
2021/12/28 06:45:36;;;;;;;27.65;11.93;;;-1.70;65.70;;;;;;5036508;28;20029;-43
2021/12/28 06:48:03;;;;;;;31.05;13.68;;;-1.70;65.70;;;;;;5036396;28;20037;-45
2021/12/28 06:50:29;;;;;;;24.02;12.20;;;-1.70;65.40;;;;;;5035849;28;20036;-45
2021/12/28 06:52:54;;;;;;;23.58;13.05;;;-1.60;65.50;;;;;;5036212;28;20104;-44
2021/12/28 06:55:20;;;;;;;24.25;13.05;;;-1.60;65.40;;;;;;5036128;28;20093;-44
2021/12/28 06:57:46;;;;;;;27.70;12.38;;;-1.60;65.50;;;;;;5036177;28;20475;-45
2021/12/28 07:00:15;;;;;;;28.27;11.95;;;-1.60;65.20;;;;;;5036398;28;20036;-43
2021/12/28 07:02:41;;;;;;;29.35;11.63;;;-1.60;65.00;;;;;;5036020;28;20064;-43
2021/12/28 07:05:08;;;;;;;24.83;11.00;;;-1.60;65.00;;;;;;5036142;28;20418;-44
2021/12/28 07:07:34;;;;;;;22.95;11.38;;;-1.60;64.90;;;;;;5036229;28;20040;-43
2021/12/28 07:10:00;;;;;;;23.70;11.00;;;-1.60;65.00;;;;;;5035844;28;20029;-45
2021/12/28 07:12:26;;;;;;;20.15;11.40;;;-1.60;65.00;;;;;;5038620;28;20107;-45
2021/12/28 07:14:51;;;;;;;23.55;11.90;;;-1.60;65.00;;;;;;5044726;28;20017;-45
2021/12/28 07:17:17;;;;;;;27.33;11.98;;;-1.60;65.10;;;;;;5034600;28;20029;-45
2021/12/28 07:19:43;;;;;;;30.02;13.20;;;-1.60;65.00;;;;;;5035288;28;20091;-45
2021/12/28 07:22:08;;;;;;;44.75;22.50;;;-1.60;64.80;;;;;;5034835;28;20037;-47
2021/12/28 07:24:34;;;;;;;27.70;12.90;;;-1.50;64.70;;;;;;5035701;28;20049;-44
2021/12/28 07:27:00;;;;;;;26.77;11.73;;;-1.50;64.60;;;;;;5035399;28;20041;-43
2021/12/28 07:29:25;;;;;;;37.42;12.45;;;-1.50;64.50;;;;;;5035655;28;20039;-45
2021/12/28 07:31:51;;;;;;;28.25;12.15;;;-1.50;64.30;;;;;;5035878;28;20083;-42
2021/12/28 07:34:17;;;;;;;27.33;11.93;;;-1.50;64.50;;;;;;5035325;28;20425;-43
2021/12/28 07:36:44;;;;;;;26.20;12.27;;;-1.50;64.20;;;;;;5035772;28;20053;-45
2021/12/28 07:39:10;;;;;;;29.15;12.95;;;-1.50;64.10;;;;;;5035178;28;20299;-44
2021/12/28 07:41:36;;;;;;;30.33;13.90;;;-1.50;64.10;;;;;;5035853;28;20041;-48
2021/12/28 07:44:02;;;;;;;25.50;11.30;;;-1.50;64.10;;;;;;5035597;28;20349;-43
2021/12/28 07:46:28;;;;;;;24.02;10.95;;;-1.50;64.20;;;;;;5035893;28;20368;-43
2021/12/28 07:48:54;;;;;;;26.25;10.93;;;-1.50;63.90;;;;;;5035220;28;20091;-43
2021/12/28 07:51:20;;;;;;;25.33;12.93;;;-1.50;64.20;;;;;;5035528;28;20425;-44
2021/12/28 07:53:45;;;;;;;20.25;11.20;;;-1.50;63.80;;;;;;5035552;28;20109;-43
2021/12/28 07:56:11;;;;;;;28.45;12.45;;;-1.50;63.90;;;;;;5035305;28;20345;-45
2021/12/28 07:58:37;;;;;;;19.58;10.73;;;-1.50;64.00;;;;;;5035718;28;20429;-45
2021/12/28 08:01:02;;;;;;;21.55;10.60;;;-1.50;63.90;;;;;;5035469;28;20026;-45
2021/12/28 08:03:28;;;;;;;25.92;11.52;;;-1.50;63.70;;;;;;5035548;28;20037;-45
2021/12/28 08:05:54;;;;;;;20.33;10.27;;;-1.50;63.60;;;;;;5035364;28;20126;-45
2021/12/28 08:08:20;;;;;;;21.70;10.02;;;-1.50;63.50;;;;;;5035471;28;20110;-45
2021/12/28 08:10:46;;;;;;;19.88;10.98;;;-1.50;63.30;;;;;;5034976;28;20025;-45
2021/12/28 08:13:12;;;;;;;19.55;10.25;;;-1.50;63.10;;;;;;5036935;28;20067;-46
2021/12/28 08:15:38;;;;;;;26.65;12.15;;;-1.50;63.00;;;;;;5054642;28;20036;-46
2021/12/28 08:18:07;;;;;;;29.90;12.20;;;-1.50;63.10;;;;;;5044130;28;20025;-44
2021/12/28 08:20:33;;;;;;;28.02;12.07;;;-1.50;62.80;;;;;;5048651;28;20037;-43
2021/12/28 08:22:59;;;;;;;35.45;14.80;;;-1.40;62.40;;;;;;5035301;28;20034;-44
2021/12/28 08:25:26;;;;;;;30.98;13.13;;;-1.40;61.90;;;;;;5035009;28;20033;-43
2021/12/28 08:27:52;;;;;;;20.75;10.80;;;-1.40;62.00;;;;;;5034815;28;20025;-43
2021/12/28 08:30:19;;;;;;;27.73;13.85;;;-1.40;61.90;;;;;;5034991;28;20032;-43
2021/12/28 08:32:45;;;;;;;37.95;15.48;;;-1.40;62.00;;;;;;5034760;28;20083;-45
2021/12/28 08:35:12;;;;;;;36.78;16.90;;;-1.40;61.80;;;;;;5044998;28;20025;-43
2021/12/28 08:37:37;;;;;;;98.80;45.10;;;-1.40;61.50;;;;;;5054802;28;20029;-44
2021/12/28 08:40:04;;;;;;;36.53;16.60;;;-1.40;61.50;;;;;;5054998;28;20444;-44
2021/12/28 08:42:30;;;;;;;63.65;29.55;;;-1.40;61.50;;;;;;5054967;28;20064;-44
2021/12/28 08:44:56;;;;;;;28.45;11.38;;;-1.40;61.40;;;;;;5054739;28;20433;-42
2021/12/28 08:47:26;;;;;;;31.13;17.50;;;-1.30;61.40;;;;;;5058680;28;20033;-43
2021/12/28 08:49:57;;;;;;;23.15;10.57;;;-1.30;61.40;;;;;;5058203;28;20052;-44
2021/12/28 08:52:23;;;;;;;29.52;13.57;;;-1.30;61.30;;;;;;5058635;28;20086;-43
2021/12/28 08:54:49;;;;;;;30.38;11.95;;;-1.30;60.80;;;;;;5058045;28;20024;-44
2021/12/28 08:57:17;;;;;;;32.03;12.68;;;-1.30;61.20;;;;;;5058539;28;20033;-43
2021/12/28 08:59:43;;;;;;;38.35;17.40;;;-1.30;61.40;;;;;;5058120;28;20036;-45
2021/12/28 09:02:09;;;;;;;34.47;16.17;;;-1.30;61.50;;;;;;5058244;28;20037;-46
2021/12/28 09:04:43;;;;;;;39.15;13.90;;;-1.30;61.80;;;;;;5058067;28;20028;-44
2021/12/28 09:07:09;;;;;;;26.75;12.77;;;-1.30;62.20;;;;;;5058345;28;20033;-43
2021/12/28 09:09:35;;;;;;;33.15;10.48;;;-1.40;62.60;;;;;;5057786;28;20040;-43
2021/12/28 09:12:01;;;;;;;26.73;12.35;;;-1.40;63.10;;;;;;5057878;28;20025;-44
2021/12/28 09:14:27;;;;;;;31.30;12.93;;;-1.50;63.30;;;;;;5057825;28;21351;-44
2021/12/28 09:16:52;;;;;;;29.15;12.20;;;-1.60;63.80;;;;;;5057820;28;20299;-43
2021/12/28 09:19:18;;;;;;;21.35;10.38;;;-1.60;64.30;;;;;;5057501;28;20321;-43
2021/12/28 09:21:43;;;;;;;19.42;9.68;;;-1.70;64.80;;;;;;5058154;28;20203;-44
2021/12/28 09:24:09;;;;;;;26.75;11.07;;;-1.70;65.20;;;;;;5057486;28;20032;-43
2021/12/28 09:26:35;;;;;;;27.25;11.63;;;-1.80;65.50;;;;;;5057918;28;20075;-43
2021/12/28 09:29:01;;;;;;;36.95;15.30;;;-1.80;66.10;;;;;;5057417;28;20075;-42
2021/12/28 09:31:26;;;;;;;29.75;12.95;;;-1.80;66.50;;;;;;5057477;28;20021;-43
2021/12/28 09:33:52;;;;;;;21.67;11.20;;;-1.80;66.70;;;;;;5057756;28;20409;-45
2021/12/28 09:36:18;;;;;;;20.23;10.02;;;-1.80;67.00;;;;;;5057728;28;20065;-44
2021/12/28 09:38:45;;;;;;;31.08;17.77;;;-1.90;67.30;;;;;;5057961;28;20102;-44
2021/12/28 09:41:12;;;;;;;23.30;12.15;;;-1.90;67.40;;;;;;5057575;28;20451;-44
2021/12/28 09:43:39;;;;;;;41.67;25.48;;;-1.90;67.40;;;;;;5055313;28;20159;-45
2021/12/28 09:46:05;;;;;;;21.02;10.55;;;-1.90;67.70;;;;;;5057654;28;20033;-44
2021/12/28 09:48:32;;;;;;;20.55;11.55;;;-1.90;67.90;;;;;;5057324;28;20052;-42
2021/12/28 09:50:58;;;;;;;20.55;9.98;;;-1.90;68.00;;;;;;5057044;28;20037;-42
2021/12/28 09:53:24;;;;;;;23.92;12.80;;;-1.90;68.30;;;;;;5057130;28;20029;-44
2021/12/28 09:55:50;;;;;;;19.85;10.63;;;-1.90;68.30;;;;;;5056683;28;20315;-44
2021/12/28 09:58:15;;;;;;;20.40;10.10;;;-1.90;68.40;;;;;;5038266;28;20021;-43
2021/12/28 10:00:42;;;;;;;22.98;11.52;;;-1.90;68.50;;;;;;5057114;28;20098;-42
2021/12/28 10:03:08;;;;;;;20.13;9.55;;;-1.90;68.60;;;;;;5056609;28;20029;-42
2021/12/28 10:05:34;;;;;;;18.88;9.75;;;-1.80;68.60;;;;;;5056924;28;20029;-46
2021/12/28 10:08:04;;;;;;;18.25;9.13;;;-1.80;68.60;;;;;;5056956;28;20324;-43
2021/12/28 10:10:33;;;;;;;16.85;9.50;;;-1.90;68.60;;;;;;5056978;28;20102;-44
2021/12/28 10:13:05;;;;;;;21.20;11.20;;;-1.90;68.60;;;;;;5056928;28;20029;-44
2021/12/28 10:15:33;;;;;;;20.63;10.13;;;-1.90;68.70;;;;;;5056423;28;20113;-46
2021/12/28 10:18:06;;;;;;;23.35;9.68;;;-2.00;69.00;;;;;;5057106;28;20354;-46
2021/12/28 10:20:36;;;;;;;18.60;10.32;;;-2.00;69.20;;;;;;5056685;28;20041;-44
2021/12/28 10:23:05;;;;;;;19.45;9.43;;;-1.90;69.50;;;;;;5049973;28;20125;-45
2021/12/28 10:26:08;;;;;;;24.27;10.93;;;-1.90;69.60;;;;;;5040808;28;20120;-44
2021/12/28 10:28:39;;;;;;;17.13;9.32;;;-1.90;69.70;;;;;;5036456;28;20033;-45
2021/12/28 10:31:16;;;;;;;17.85;9.18;;;-1.90;69.50;;;;;;5036106;28;20037;-44
2021/12/28 10:33:42;;;;;;;19.75;9.77;;;-1.90;69.50;;;;;;5036207;28;20025;-43
2021/12/28 10:36:11;;;;;;;19.55;9.50;;;-1.90;69.60;;;;;;5036307;28;20037;-43
2021/12/28 10:38:40;;;;;;;16.08;8.32;;;-1.90;69.70;;;;;;5036567;28;20121;-45
2021/12/28 10:41:19;;;;;;;17.92;8.57;;;-1.90;69.70;;;;;;5035409;28;20037;-42
2021/12/28 10:43:49;;;;;;;20.50;9.98;;;-1.90;69.60;;;;;;5036086;28;20033;-53
2021/12/28 10:46:17;;;;;;;18.58;9.68;;;-1.90;69.60;;;;;;5036260;28;20029;-40
2021/12/28 10:48:47;;;;;;;16.90;8.95;;;-1.90;69.80;;;;;;5035798;28;20104;-44
2021/12/28 10:51:28;;;;;;;18.92;9.30;;;-1.90;69.80;;;;;;5036202;28;20037;-44
2021/12/28 10:54:12;;;;;;;16.60;8.73;;;-1.90;69.70;;;;;;5035737;28;20155;-44
2021/12/28 10:56:41;;;;;;;20.50;12.25;;;-1.90;69.70;;;;;;5036020;28;20057;-43
2021/12/28 10:59:09;;;;;;;21.45;9.32;;;-1.90;69.90;;;;;;5035988;28;20071;-44
2021/12/28 11:01:38;;;;;;;16.50;8.80;;;-1.90;69.90;;;;;;5035987;28;20026;-44
2021/12/28 11:04:10;;;;;;;18.38;8.82;;;-1.90;69.70;;;;;;5035609;28;20079;-44
2021/12/28 11:06:41;;;;;;;16.38;10.13;;;-2.00;69.70;;;;;;5035757;28;20549;-45
2021/12/28 11:09:10;;;;;;;22.17;11.88;;;-2.00;70.00;;;;;;5034910;28;20030;-43
2021/12/28 11:11:36;;;;;;;18.15;10.52;;;-2.00;70.20;;;;;;5035814;28;20026;-45
2021/12/28 11:14:08;;;;;;;18.55;10.48;;;-2.10;70.20;;;;;;5035491;28;20402;-44
2021/12/28 11:16:34;;;;;;;17.92;9.02;;;-2.10;70.40;;;;;;5036021;28;20056;-42
2021/12/28 11:19:03;;;;;;;18.38;8.63;;;-2.10;70.50;;;;;;5035478;28;20033;-43
2021/12/28 11:21:41;;;;;;;20.05;9.70;;;-2.10;70.70;;;;;;5035708;28;20037;-43
2021/12/28 11:24:13;;;;;;;18.77;8.35;;;-2.10;70.90;;;;;;5035427;28;20029;-43
2021/12/28 11:26:47;;;;;;;16.23;9.65;;;-2.10;71.00;;;;;;5035795;28;20128;-43
2021/12/28 11:29:28;;;;;;;17.45;8.90;;;-2.10;71.10;;;;;;5033824;28;20384;-45
2021/12/28 11:31:57;;;;;;;;;;;-2.10;71.10;;;;;;5036327;28;20030;-45
2021/12/28 11:34:35;;;;;;;20.50;9.68;;;-2.00;71.10;;;;;;5035293;28;20282;-42
2021/12/28 11:37:08;;;;;;;19.55;9.10;;;-2.00;71.20;;;;;;5035687;28;20029;-46
2021/12/28 11:39:39;;;;;;;17.20;9.38;;;-2.10;71.20;;;;;;5035331;28;20317;-45
2021/12/28 11:42:06;;;;;;;17.63;8.98;;;-2.10;71.20;;;;;;5035764;28;20025;-45
2021/12/28 11:44:34;;;;;;;17.27;9.07;;;-2.10;71.30;;;;;;5035470;28;20426;-42
2021/12/28 11:47:04;;;;;;;21.02;9.00;;;-2.10;71.20;;;;;;5035361;28;20456;-45
2021/12/28 11:49:30;;;;;;;17.90;9.75;;;-2.20;71.10;;;;;;5035159;28;20026;-45
2021/12/28 11:52:01;;;;;;;17.85;8.68;;;-2.20;71.20;;;;;;5035458;28;20036;-42
2021/12/28 11:54:30;;;;;;;18.85;9.43;;;-2.20;71.30;;;;;;5033192;28;20366;-43
2021/12/28 11:57:04;;;;;;;26.20;14.30;;;-2.20;71.50;;;;;;5035357;28;20441;-49
2021/12/28 11:59:30;;;;;;;19.05;9.77;;;-2.30;71.50;;;;;;5035316;28;20030;-45
2021/12/28 12:02:02;;;;;;;20.98;10.30;;;-2.30;71.50;;;;;;5041455;28;20033;-45
2021/12/28 12:04:33;;;;;;;20.52;9.20;;;-2.30;71.70;;;;;;5054190;28;20361;-45
2021/12/28 12:07:16;;;;;;;18.98;10.32;;;-2.30;71.80;;;;;;5055103;28;20120;-42
2021/12/28 12:09:53;;;;;;;20.48;9.77;;;-2.30;71.60;;;;;;5054997;28;20064;-45
2021/12/28 12:12:19;;;;;;;19.27;9.40;;;-2.30;71.50;;;;;;5055176;28;20028;-42
2021/12/28 12:14:50;;;;;;;22.92;10.95;;;-2.30;71.50;;;;;;5054964;28;20344;-43
2021/12/28 12:17:28;;;;;;;23.80;13.63;;;-2.30;71.50;;;;;;5055148;28;20075;-45
2021/12/28 12:20:16;;;;;;;19.25;9.80;;;-2.40;71.50;;;;;;5054644;28;20037;-42
2021/12/28 12:22:48;;;;;;;17.60;9.27;;;-2.40;71.40;;;;;;5059035;28;20044;-44
2021/12/28 12:25:23;;;;;;;18.60;8.73;;;-2.40;71.50;;;;;;5059075;28;20040;-42
2021/12/28 12:27:54;;;;;;;22.42;10.45;;;-2.40;71.60;;;;;;5058495;28;20372;-42
2021/12/28 12:30:23;;;;;;;21.77;9.88;;;-2.40;71.60;;;;;;5058722;28;20037;-44
2021/12/28 12:33:06;;;;;;;17.67;9.25;;;-2.50;71.80;;;;;;5058705;28;20033;-42